CCA1916 ZHCC-ZBAA
Flight info
| Callsign | CCA1916 |
|---|---|
| Flight time | 1h 9m |
| Altitude | 37100 |
| Route | K0841S1130 OKT9W OKTOX W56 LEBUN/K0839S1160 W56 NUDKU/K0835S1130 W56 DUGEB DUGEB5D |
| Aircraft | B38M/M-SDE1FGHILORVWXY/HB1 |
Departure
| Time | 2026-05-09 07:34 |
|---|---|
| Airport | Zhengzhou Xinzheng International Airport (ZHCC) |
Arrival
| Time | 2026-05-09 08:43 |
|---|---|
| Airport | Beijing Capital International Airport (ZBAA) |
| Time | Latitude | Longitude | Altitude | Speed | Heading |
|---|---|---|---|---|---|
| 2026-05-09 06:59 | 34.52428 | 113.85057 | 507 ft | 0 kts | 292° |
| 2026-05-09 07:22 | 34.52427 | 113.85063 | 507 ft | 3 kts | 292° |
| 2026-05-09 07:23 | 34.52416 | 113.85093 | 507 ft | 4 kts | 292° |
| 2026-05-09 07:23 | 34.52406 | 113.85123 | 507 ft | 4 kts | 292° |
| 2026-05-09 07:23 | 34.52396 | 113.85153 | 507 ft | 4 kts | 292° |
| 2026-05-09 07:23 | 34.52386 | 113.85179 | 507 ft | 4 kts | 307° |
| 2026-05-09 07:24 | 34.52368 | 113.85191 | 507 ft | 4 kts | 8° |
| 2026-05-09 07:24 | 34.52348 | 113.85184 | 507 ft | 1 kts | 22° |
| 2026-05-09 07:24 | 34.52345 | 113.85182 | 507 ft | 0 kts | 22° |
| 2026-05-09 07:27 | 34.52352 | 113.85186 | 507 ft | 3 kts | 22° |
| 2026-05-09 07:27 | 34.52385 | 113.85203 | 507 ft | 8 kts | 22° |
| 2026-05-09 07:28 | 34.52467 | 113.85243 | 507 ft | 17 kts | 22° |
| 2026-05-09 07:28 | 34.52593 | 113.85306 | 507 ft | 21 kts | 22° |
| 2026-05-09 07:28 | 34.52733 | 113.85376 | 507 ft | 22 kts | 22° |
| 2026-05-09 07:28 | 34.52881 | 113.85450 | 507 ft | 24 kts | 22° |
| 2026-05-09 07:29 | 34.53012 | 113.85516 | 507 ft | 13 kts | 22° |
| 2026-05-09 07:29 | 34.53099 | 113.85559 | 507 ft | 14 kts | 21° |
| 2026-05-09 07:29 | 34.53198 | 113.85608 | 507 ft | 16 kts | 17° |
| 2026-05-09 07:29 | 34.53269 | 113.85527 | 506 ft | 16 kts | 291° |
| 2026-05-09 07:30 | 34.53313 | 113.85396 | 506 ft | 18 kts | 292° |
| 2026-05-09 07:30 | 34.53361 | 113.85255 | 506 ft | 19 kts | 292° |
| 2026-05-09 07:30 | 34.53413 | 113.85102 | 506 ft | 20 kts | 292° |
| 2026-05-09 07:30 | 34.53469 | 113.84939 | 506 ft | 22 kts | 292° |
| 2026-05-09 07:31 | 34.53527 | 113.84766 | 507 ft | 23 kts | 292° |
| 2026-05-09 07:31 | 34.53589 | 113.84585 | 507 ft | 24 kts | 292° |
| 2026-05-09 07:31 | 34.53654 | 113.84395 | 507 ft | 25 kts | 292° |
| 2026-05-09 07:31 | 34.53713 | 113.84234 | 507 ft | 12 kts | 318° |
| 2026-05-09 07:32 | 34.53793 | 113.84249 | 506 ft | 13 kts | 24° |
| 2026-05-09 07:32 | 34.53859 | 113.84323 | 505 ft | 14 kts | 91° |
| 2026-05-09 07:32 | 34.53844 | 113.84382 | 505 ft | 1 kts | 111° |
| 2026-05-09 07:32 | 34.53838 | 113.84400 | 505 ft | 4 kts | 111° |
| 2026-05-09 07:33 | 34.53783 | 113.84562 | 504 ft | 55 kts | 112° |
| 2026-05-09 07:33 | 34.53126 | 113.86476 | 522 ft | 178 kts | 114° |
| 2026-05-09 07:33 | 34.52653 | 113.87935 | 1017 ft | 195 kts | 115° |
| 2026-05-09 07:34 | 34.52057 | 113.89502 | 1684 ft | 210 kts | 120° |
| 2026-05-09 07:34 | 34.51424 | 113.91101 | 2400 ft | 219 kts | 120° |
| 2026-05-09 07:34 | 34.50778 | 113.92794 | 3208 ft | 223 kts | 118° |
| 2026-05-09 07:34 | 34.50144 | 113.94529 | 4037 ft | 229 kts | 118° |
| 2026-05-09 07:35 | 34.49497 | 113.96414 | 4459 ft | 258 kts | 116° |
| 2026-05-09 07:35 | 34.48835 | 113.98458 | 5337 ft | 263 kts | 115° |
| 2026-05-09 07:35 | 34.48157 | 114.00587 | 6027 ft | 279 kts | 114° |
| 2026-05-09 07:35 | 34.47447 | 114.02841 | 6741 ft | 291 kts | 113° |
| 2026-05-09 07:36 | 34.46731 | 114.05141 | 7673 ft | 293 kts | 112° |
| 2026-05-09 07:36 | 34.46253 | 114.07568 | 8513 ft | 300 kts | 97° |
| 2026-05-09 07:36 | 34.46010 | 114.10097 | 9391 ft | 305 kts | 97° |
| 2026-05-09 07:36 | 34.45754 | 114.12666 | 10225 ft | 309 kts | 96° |
| 2026-05-09 07:37 | 34.45484 | 114.15316 | 10712 ft | 326 kts | 96° |
| 2026-05-09 07:37 | 34.45193 | 114.18125 | 11098 ft | 344 kts | 96° |
| 2026-05-09 07:37 | 34.44888 | 114.21060 | 11603 ft | 357 kts | 96° |
| 2026-05-09 07:37 | 34.44577 | 114.24049 | 12373 ft | 359 kts | 96° |
| 2026-05-09 07:38 | 34.44262 | 114.27063 | 13112 ft | 363 kts | 96° |
| 2026-05-09 07:38 | 34.43942 | 114.30107 | 13829 ft | 367 kts | 96° |
| 2026-05-09 07:38 | 34.43619 | 114.33187 | 14456 ft | 370 kts | 96° |
| 2026-05-09 07:38 | 34.43291 | 114.36295 | 15088 ft | 374 kts | 96° |
| 2026-05-09 07:39 | 34.42960 | 114.39439 | 15710 ft | 378 kts | 96° |
| 2026-05-09 07:39 | 34.42712 | 114.42619 | 16307 ft | 381 kts | 86° |
| 2026-05-09 07:39 | 34.43178 | 114.45755 | 16891 ft | 380 kts | 70° |
| 2026-05-09 07:39 | 34.43997 | 114.48818 | 17434 ft | 385 kts | 69° |
| 2026-05-09 07:40 | 34.45042 | 114.51790 | 17981 ft | 384 kts | 55° |
| 2026-05-09 07:40 | 34.46755 | 114.54235 | 18480 ft | 381 kts | 36° |
| 2026-05-09 07:40 | 34.48997 | 114.55900 | 18902 ft | 378 kts | 18° |
| 2026-05-09 07:40 | 34.51522 | 114.56694 | 19360 ft | 375 kts | 4° |
| 2026-05-09 07:41 | 34.54121 | 114.57091 | 19819 ft | 378 kts | 2° |
| 2026-05-09 07:41 | 34.56743 | 114.57422 | 20317 ft | 380 kts | 1° |
| 2026-05-09 07:41 | 34.59350 | 114.57713 | 20796 ft | 382 kts | 1° |
| 2026-05-09 07:41 | 34.61966 | 114.57992 | 21665 ft | 371 kts | 0° |
| 2026-05-09 07:42 | 34.64492 | 114.58257 | 22737 ft | 359 kts | 359° |
| 2026-05-09 07:42 | 34.67009 | 114.58488 | 23029 ft | 369 kts | 359° |
| 2026-05-09 07:42 | 34.69621 | 114.58728 | 23044 ft | 384 kts | 359° |
| 2026-05-09 07:42 | 34.72335 | 114.58983 | 23153 ft | 397 kts | 359° |
| 2026-05-09 07:43 | 34.75098 | 114.59247 | 23598 ft | 399 kts | 359° |
| 2026-05-09 07:43 | 34.77875 | 114.59512 | 23991 ft | 402 kts | 359° |
| 2026-05-09 07:43 | 34.80672 | 114.59780 | 24371 ft | 405 kts | 359° |
| 2026-05-09 07:43 | 34.83489 | 114.60048 | 24777 ft | 407 kts | 359° |
| 2026-05-09 07:44 | 34.86320 | 114.60319 | 25158 ft | 410 kts | 359° |
| 2026-05-09 07:44 | 34.89176 | 114.60592 | 25541 ft | 412 kts | 358° |
| 2026-05-09 07:44 | 34.92046 | 114.60866 | 25914 ft | 415 kts | 358° |
| 2026-05-09 07:44 | 34.94935 | 114.61143 | 26285 ft | 418 kts | 358° |
| 2026-05-09 07:45 | 34.97838 | 114.61421 | 26645 ft | 420 kts | 358° |
| 2026-05-09 07:45 | 35.00764 | 114.61701 | 27008 ft | 423 kts | 358° |
| 2026-05-09 07:45 | 35.02747 | 114.61891 | 27256 ft | 424 kts | 358° |
| 2026-05-09 07:45 | 35.06658 | 114.62266 | 27723 ft | 427 kts | 358° |
| 2026-05-09 07:46 | 35.08620 | 114.62455 | 27954 ft | 429 kts | 358° |
| 2026-05-09 07:46 | 35.12612 | 114.62838 | 28406 ft | 432 kts | 357° |
| 2026-05-09 07:46 | 35.15117 | 114.63080 | 28684 ft | 433 kts | 357° |
| 2026-05-09 07:46 | 35.17110 | 114.63272 | 28908 ft | 435 kts | 357° |
| 2026-05-09 07:47 | 35.20133 | 114.63562 | 29233 ft | 437 kts | 357° |
| 2026-05-09 07:47 | 35.23169 | 114.63855 | 29561 ft | 439 kts | 357° |
| 2026-05-09 07:47 | 35.26221 | 114.64149 | 29887 ft | 441 kts | 357° |
| 2026-05-09 07:47 | 35.29286 | 114.64444 | 30150 ft | 443 kts | 356° |
| 2026-05-09 07:48 | 35.32364 | 114.64741 | 30410 ft | 445 kts | 356° |
| 2026-05-09 07:48 | 35.35457 | 114.65041 | 30669 ft | 447 kts | 356° |
| 2026-05-09 07:48 | 35.38558 | 114.65341 | 30926 ft | 448 kts | 356° |
| 2026-05-09 07:48 | 35.41671 | 114.65642 | 31172 ft | 450 kts | 356° |
| 2026-05-09 07:49 | 35.44801 | 114.65945 | 31415 ft | 452 kts | 356° |
| 2026-05-09 07:49 | 35.47937 | 114.66248 | 31671 ft | 453 kts | 356° |
| 2026-05-09 07:49 | 35.51079 | 114.66554 | 31980 ft | 453 kts | 356° |
| 2026-05-09 07:49 | 35.54219 | 114.66860 | 32339 ft | 452 kts | 356° |
| 2026-05-09 07:50 | 35.54426 | 114.66880 | 32350 ft | 452 kts | 356° |
| 2026-05-09 07:53 | 35.56785 | 114.67111 | 32611 ft | 451 kts | 356° |
| 2026-05-09 07:53 | 35.59915 | 114.67416 | 32928 ft | 451 kts | 356° |
| 2026-05-09 07:54 | 35.63042 | 114.67721 | 33253 ft | 450 kts | 356° |
| 2026-05-09 07:54 | 35.66118 | 114.68020 | 33567 ft | 449 kts | 356° |
| 2026-05-09 07:54 | 35.69231 | 114.68324 | 33886 ft | 448 kts | 356° |
| 2026-05-09 07:54 | 35.72338 | 114.68627 | 34163 ft | 447 kts | 356° |
| 2026-05-09 07:55 | 35.75439 | 114.68930 | 34426 ft | 447 kts | 356° |
| 2026-05-09 07:55 | 35.78532 | 114.69232 | 34692 ft | 446 kts | 356° |
| 2026-05-09 07:55 | 35.81623 | 114.69534 | 34939 ft | 445 kts | 356° |
| 2026-05-09 07:55 | 35.84712 | 114.69836 | 35182 ft | 445 kts | 356° |
| 2026-05-09 07:56 | 35.87795 | 114.70138 | 35419 ft | 444 kts | 356° |
| 2026-05-09 07:56 | 35.90874 | 114.70440 | 35651 ft | 444 kts | 356° |
| 2026-05-09 07:56 | 35.93951 | 114.70742 | 35869 ft | 443 kts | 356° |
| 2026-05-09 07:56 | 35.97027 | 114.71044 | 36083 ft | 443 kts | 356° |
| 2026-05-09 07:57 | 36.00100 | 114.71346 | 36284 ft | 443 kts | 356° |
| 2026-05-09 07:57 | 36.03171 | 114.71647 | 36489 ft | 443 kts | 356° |
| 2026-05-09 07:57 | 36.06243 | 114.71950 | 36673 ft | 443 kts | 356° |
| 2026-05-09 07:57 | 36.09309 | 114.72250 | 36863 ft | 442 kts | 356° |
| 2026-05-09 07:58 | 36.11341 | 114.72448 | 36941 ft | 442 kts | 356° |
| 2026-05-09 07:58 | 36.18504 | 114.73150 | 36921 ft | 441 kts | 356° |
| 2026-05-09 07:59 | 36.24624 | 114.73750 | 36920 ft | 441 kts | 356° |
| 2026-05-09 07:59 | 36.27680 | 114.74051 | 36917 ft | 441 kts | 356° |
| 2026-05-09 08:00 | 36.45979 | 114.80001 | 36910 ft | 463 kts | 17° |
| 2026-05-09 08:01 | 36.48989 | 114.81721 | 36910 ft | 464 kts | 17° |
| 2026-05-09 08:01 | 36.54836 | 114.85102 | 36906 ft | 464 kts | 17° |
| 2026-05-09 08:02 | 36.60683 | 114.88494 | 36904 ft | 463 kts | 17° |
| 2026-05-09 08:02 | 36.66523 | 114.91888 | 36902 ft | 463 kts | 17° |
| 2026-05-09 08:03 | 36.72363 | 114.95288 | 36898 ft | 463 kts | 17° |
| 2026-05-09 08:03 | 36.78195 | 114.98690 | 36899 ft | 463 kts | 17° |
| 2026-05-09 08:04 | 36.84029 | 115.02098 | 36896 ft | 463 kts | 17° |
| 2026-05-09 08:04 | 36.89856 | 115.05507 | 36892 ft | 463 kts | 17° |
| 2026-05-09 08:05 | 36.95675 | 115.08918 | 36891 ft | 462 kts | 17° |
| 2026-05-09 08:05 | 37.01501 | 115.12338 | 36887 ft | 462 kts | 17° |
| 2026-05-09 08:06 | 37.07324 | 115.15763 | 36892 ft | 462 kts | 17° |
| 2026-05-09 08:06 | 37.13139 | 115.19189 | 36888 ft | 462 kts | 17° |
| 2026-05-09 08:07 | 37.18946 | 115.22616 | 36884 ft | 462 kts | 17° |
| 2026-05-09 08:07 | 37.24762 | 115.26054 | 36884 ft | 462 kts | 18° |
| 2026-05-09 08:08 | 37.30574 | 115.29496 | 36880 ft | 462 kts | 18° |
| 2026-05-09 08:08 | 37.36385 | 115.32942 | 36875 ft | 462 kts | 18° |
| 2026-05-09 08:09 | 37.42198 | 115.36397 | 36872 ft | 462 kts | 18° |
| 2026-05-09 08:09 | 37.48004 | 115.39853 | 36870 ft | 462 kts | 18° |
| 2026-05-09 08:10 | 37.53775 | 115.43294 | 36872 ft | 462 kts | 18° |
| 2026-05-09 08:10 | 37.59605 | 115.46777 | 36164 ft | 461 kts | 18° |
| 2026-05-09 08:10 | 37.62489 | 115.48502 | 35194 ft | 468 kts | 18° |
| 2026-05-09 08:11 | 37.65425 | 115.50259 | 34602 ft | 465 kts | 18° |
| 2026-05-09 08:11 | 37.68328 | 115.51998 | 34221 ft | 458 kts | 18° |
| 2026-05-09 08:11 | 37.71190 | 115.53714 | 33752 ft | 453 kts | 18° |
| 2026-05-09 08:11 | 37.74031 | 115.55417 | 33133 ft | 451 kts | 19° |
| 2026-05-09 08:12 | 37.79749 | 115.58327 | 31960 ft | 431 kts | 2° |
| 2026-05-09 08:12 | 37.82680 | 115.58474 | 31457 ft | 416 kts | 351° |
| 2026-05-09 08:12 | 37.85560 | 115.58357 | 31042 ft | 411 kts | 351° |
| 2026-05-09 08:13 | 37.88408 | 115.58203 | 30568 ft | 408 kts | 351° |
| 2026-05-09 08:13 | 37.91228 | 115.58021 | 30068 ft | 405 kts | 350° |
| 2026-05-09 08:13 | 37.94034 | 115.57826 | 29553 ft | 403 kts | 350° |
| 2026-05-09 08:13 | 37.96823 | 115.57627 | 29023 ft | 400 kts | 350° |
| 2026-05-09 08:14 | 37.99584 | 115.57426 | 28549 ft | 396 kts | 350° |
| 2026-05-09 08:14 | 38.02325 | 115.57225 | 28087 ft | 392 kts | 350° |
| 2026-05-09 08:14 | 38.05039 | 115.57025 | 27634 ft | 389 kts | 350° |
| 2026-05-09 08:14 | 38.06858 | 115.56890 | 27325 ft | 386 kts | 350° |
| 2026-05-09 08:15 | 38.10412 | 115.56697 | 26661 ft | 385 kts | 351° |
| 2026-05-09 08:15 | 38.12212 | 115.56578 | 26333 ft | 383 kts | 351° |
| 2026-05-09 08:15 | 38.14863 | 115.56400 | 25932 ft | 380 kts | 351° |
| 2026-05-09 08:15 | 38.17455 | 115.56225 | 25530 ft | 376 kts | 350° |
| 2026-05-09 08:16 | 38.20060 | 115.56050 | 25114 ft | 374 kts | 350° |
| 2026-05-09 08:16 | 38.22646 | 115.55875 | 24702 ft | 371 kts | 350° |
| 2026-05-09 08:16 | 38.25224 | 115.55735 | 24278 ft | 372 kts | 355° |
| 2026-05-09 08:16 | 38.27805 | 115.56342 | 23798 ft | 387 kts | 14° |
| 2026-05-09 08:17 | 38.30263 | 115.57792 | 23421 ft | 388 kts | 19° |
| 2026-05-09 08:17 | 38.32693 | 115.59276 | 22955 ft | 387 kts | 19° |
| 2026-05-09 08:17 | 38.35110 | 115.60774 | 22513 ft | 385 kts | 19° |
| 2026-05-09 08:17 | 38.37508 | 115.62273 | 22105 ft | 383 kts | 19° |
| 2026-05-09 08:18 | 38.39884 | 115.63765 | 21710 ft | 380 kts | 19° |
| 2026-05-09 08:18 | 38.42244 | 115.65250 | 21316 ft | 377 kts | 19° |
| 2026-05-09 08:18 | 38.44592 | 115.66730 | 20929 ft | 375 kts | 19° |
| 2026-05-09 08:18 | 38.46923 | 115.68199 | 20546 ft | 373 kts | 19° |
| 2026-05-09 08:19 | 38.49240 | 115.69661 | 20162 ft | 371 kts | 20° |
| 2026-05-09 08:19 | 38.51547 | 115.71118 | 19737 ft | 370 kts | 20° |
| 2026-05-09 08:19 | 38.53851 | 115.72574 | 19381 ft | 368 kts | 20° |
| 2026-05-09 08:19 | 38.56134 | 115.74017 | 19020 ft | 366 kts | 20° |
| 2026-05-09 08:20 | 38.58414 | 115.75459 | 18643 ft | 365 kts | 20° |
| 2026-05-09 08:20 | 38.60684 | 115.76897 | 18274 ft | 364 kts | 20° |
| 2026-05-09 08:20 | 38.62950 | 115.78333 | 17877 ft | 363 kts | 20° |
| 2026-05-09 08:20 | 38.65209 | 115.79766 | 17482 ft | 361 kts | 21° |
| 2026-05-09 08:21 | 38.67296 | 115.81555 | 17342 ft | 366 kts | 36° |
| 2026-05-09 08:21 | 38.69245 | 115.83664 | 17225 ft | 367 kts | 35° |
| 2026-05-09 08:21 | 38.71202 | 115.85765 | 17120 ft | 367 kts | 35° |
| 2026-05-09 08:21 | 38.73156 | 115.87867 | 17002 ft | 367 kts | 35° |
| 2026-05-09 08:22 | 38.75110 | 115.89969 | 16889 ft | 366 kts | 35° |
| 2026-05-09 08:22 | 38.77057 | 115.92065 | 16783 ft | 365 kts | 35° |
| 2026-05-09 08:22 | 38.79001 | 115.94160 | 16670 ft | 365 kts | 35° |
| 2026-05-09 08:22 | 38.80938 | 115.96250 | 16564 ft | 364 kts | 35° |
| 2026-05-09 08:23 | 38.82875 | 115.98339 | 16451 ft | 364 kts | 35° |
| 2026-05-09 08:23 | 38.84810 | 116.00429 | 16339 ft | 363 kts | 35° |
| 2026-05-09 08:23 | 38.86743 | 116.02518 | 16231 ft | 363 kts | 35° |
| 2026-05-09 08:23 | 38.88668 | 116.04600 | 16113 ft | 362 kts | 34° |
| 2026-05-09 08:24 | 38.90593 | 116.06683 | 16010 ft | 361 kts | 34° |
| 2026-05-09 08:24 | 38.92513 | 116.08763 | 15902 ft | 361 kts | 34° |
| 2026-05-09 08:24 | 38.94426 | 116.10836 | 15793 ft | 360 kts | 34° |
| 2026-05-09 08:24 | 38.96339 | 116.12912 | 15686 ft | 359 kts | 34° |
| 2026-05-09 08:25 | 38.98248 | 116.14983 | 15573 ft | 359 kts | 34° |
| 2026-05-09 08:25 | 39.00149 | 116.17047 | 15463 ft | 357 kts | 34° |
| 2026-05-09 08:25 | 39.02174 | 116.18683 | 15222 ft | 340 kts | 14° |
| 2026-05-09 08:25 | 39.04461 | 116.19287 | 15055 ft | 327 kts | 354° |
| 2026-05-09 08:26 | 39.06692 | 116.19180 | 14869 ft | 324 kts | 349° |
| 2026-05-09 08:26 | 39.08937 | 116.18969 | 14650 ft | 323 kts | 348° |
| 2026-05-09 08:26 | 39.11166 | 116.18702 | 14431 ft | 321 kts | 347° |
| 2026-05-09 08:26 | 39.13413 | 116.18399 | 14205 ft | 319 kts | 347° |
| 2026-05-09 08:27 | 39.15616 | 116.18087 | 13978 ft | 318 kts | 347° |
| 2026-05-09 08:27 | 39.17784 | 116.17770 | 13763 ft | 317 kts | 347° |
| 2026-05-09 08:27 | 39.19972 | 116.17445 | 13535 ft | 316 kts | 347° |
| 2026-05-09 08:27 | 39.22151 | 116.17120 | 13298 ft | 315 kts | 347° |
| 2026-05-09 08:28 | 39.24325 | 116.16793 | 13056 ft | 314 kts | 347° |
| 2026-05-09 08:28 | 39.26497 | 116.16465 | 12834 ft | 314 kts | 347° |
| 2026-05-09 08:28 | 39.28667 | 116.16137 | 12610 ft | 314 kts | 347° |
| 2026-05-09 08:28 | 39.30834 | 116.15809 | 12390 ft | 313 kts | 347° |
| 2026-05-09 08:29 | 39.32997 | 116.15481 | 12171 ft | 313 kts | 347° |
| 2026-05-09 08:29 | 39.35172 | 116.15322 | 11987 ft | 316 kts | 1° |
| 2026-05-09 08:29 | 39.37238 | 116.16262 | 11938 ft | 318 kts | 26° |
| 2026-05-09 08:29 | 39.38921 | 116.18109 | 11909 ft | 323 kts | 46° |
| 2026-05-09 08:30 | 39.40274 | 116.20532 | 11859 ft | 339 kts | 51° |
| 2026-05-09 08:30 | 39.41669 | 116.23019 | 11682 ft | 344 kts | 50° |
| 2026-05-09 08:30 | 39.43100 | 116.25518 | 11372 ft | 346 kts | 50° |
| 2026-05-09 08:30 | 39.44536 | 116.28006 | 11032 ft | 344 kts | 50° |
| 2026-05-09 08:31 | 39.45970 | 116.30479 | 10685 ft | 343 kts | 50° |
| 2026-05-09 08:31 | 39.47401 | 116.32942 | 10347 ft | 342 kts | 50° |
| 2026-05-09 08:31 | 39.48814 | 116.35375 | 10178 ft | 335 kts | 50° |
| 2026-05-09 08:31 | 39.50193 | 116.37755 | 10074 ft | 324 kts | 50° |
| 2026-05-09 08:32 | 39.51515 | 116.40043 | 10063 ft | 311 kts | 50° |
| 2026-05-09 08:32 | 39.52787 | 116.42245 | 9963 ft | 301 kts | 50° |
| 2026-05-09 08:32 | 39.55280 | 116.46548 | 9295 ft | 297 kts | 51° |
| 2026-05-09 08:33 | 39.56518 | 116.48682 | 8968 ft | 295 kts | 51° |
| 2026-05-09 08:33 | 39.57747 | 116.50801 | 8653 ft | 293 kts | 51° |
| 2026-05-09 08:33 | 39.58966 | 116.52905 | 8357 ft | 290 kts | 51° |
| 2026-05-09 08:33 | 39.60172 | 116.54986 | 8076 ft | 288 kts | 51° |
| 2026-05-09 08:34 | 39.61366 | 116.57048 | 7787 ft | 286 kts | 52° |
| 2026-05-09 08:34 | 39.62558 | 116.59106 | 7500 ft | 284 kts | 52° |
| 2026-05-09 08:34 | 39.63725 | 116.61123 | 7219 ft | 283 kts | 52° |
| 2026-05-09 08:34 | 39.64901 | 116.63157 | 6926 ft | 282 kts | 52° |
| 2026-05-09 08:35 | 39.66075 | 116.65187 | 6629 ft | 280 kts | 52° |
| 2026-05-09 08:35 | 39.67492 | 116.66880 | 6281 ft | 277 kts | 23° |
| 2026-05-09 08:35 | 39.69306 | 116.67401 | 5977 ft | 261 kts | 350° |
| 2026-05-09 08:35 | 39.71045 | 116.67162 | 5963 ft | 244 kts | 346° |
| 2026-05-09 08:36 | 39.72680 | 116.66926 | 5949 ft | 229 kts | 345° |
| 2026-05-09 08:36 | 39.74226 | 116.66695 | 5941 ft | 221 kts | 345° |
| 2026-05-09 08:36 | 39.75753 | 116.66463 | 5923 ft | 222 kts | 345° |
| 2026-05-09 08:36 | 39.77286 | 116.66239 | 5677 ft | 220 kts | 345° |
| 2026-05-09 08:37 | 39.78806 | 116.66011 | 5359 ft | 220 kts | 346° |
| 2026-05-09 08:37 | 39.80324 | 116.65778 | 5070 ft | 219 kts | 347° |
| 2026-05-09 08:37 | 39.81803 | 116.65554 | 4828 ft | 204 kts | 348° |
| 2026-05-09 08:37 | 39.83160 | 116.65342 | 4563 ft | 190 kts | 347° |
| 2026-05-09 08:38 | 39.84405 | 116.65133 | 4311 ft | 171 kts | 352° |
| 2026-05-09 08:38 | 39.85532 | 116.64960 | 4077 ft | 159 kts | 352° |
| 2026-05-09 08:38 | 39.86621 | 116.64791 | 3862 ft | 157 kts | 352° |
| 2026-05-09 08:38 | 39.87705 | 116.64622 | 3642 ft | 157 kts | 352° |
| 2026-05-09 08:39 | 39.88786 | 116.64453 | 3443 ft | 156 kts | 352° |
| 2026-05-09 08:39 | 39.89862 | 116.64284 | 3230 ft | 156 kts | 352° |
| 2026-05-09 08:39 | 39.90937 | 116.64115 | 3022 ft | 155 kts | 352° |
| 2026-05-09 08:39 | 39.92009 | 116.63947 | 2817 ft | 155 kts | 352° |
| 2026-05-09 08:40 | 39.93077 | 116.63779 | 2609 ft | 154 kts | 352° |
| 2026-05-09 08:40 | 39.94142 | 116.63612 | 2406 ft | 154 kts | 352° |
| 2026-05-09 08:40 | 39.95203 | 116.63446 | 2201 ft | 154 kts | 352° |
| 2026-05-09 08:40 | 39.96263 | 116.63279 | 1995 ft | 153 kts | 352° |
| 2026-05-09 08:41 | 39.97318 | 116.63114 | 1791 ft | 152 kts | 352° |
| 2026-05-09 08:41 | 39.98369 | 116.62949 | 1590 ft | 152 kts | 352° |
| 2026-05-09 08:41 | 39.99417 | 116.62784 | 1387 ft | 152 kts | 352° |
| 2026-05-09 08:41 | 40.00464 | 116.62619 | 1188 ft | 151 kts | 352° |
| 2026-05-09 08:42 | 40.01505 | 116.62455 | 989 ft | 151 kts | 352° |
| 2026-05-09 08:42 | 40.02531 | 116.62294 | 791 ft | 150 kts | 352° |
| 2026-05-09 08:42 | 40.03579 | 116.62129 | 585 ft | 149 kts | 352° |
| 2026-05-09 08:42 | 40.04597 | 116.61969 | 394 ft | 149 kts | 352° |
| 2026-05-09 08:43 | 40.05611 | 116.61807 | 201 ft | 145 kts | 353° |
| 2026-05-09 08:43 | 40.06599 | 116.61655 | 127 ft | 132 kts | 353° |
| 2026-05-09 08:43 | 40.07271 | 116.61551 | 124 ft | 65 kts | 353° |
| 2026-05-09 08:43 | 40.07583 | 116.61502 | 123 ft | 29 kts | 353° |
| 2026-05-09 08:44 | 40.07782 | 116.61450 | 126 ft | 30 kts | 341° |
| 2026-05-09 08:44 | 40.07915 | 116.61349 | 124 ft | 11 kts | 324° |
| 2026-05-09 08:44 | 40.07968 | 116.61277 | 127 ft | 11 kts | 281° |
| 2026-05-09 08:44 | 40.07959 | 116.61171 | 125 ft | 13 kts | 261° |
| 2026-05-09 08:45 | 40.07922 | 116.61092 | 123 ft | 10 kts | 192° |
| 2026-05-09 08:45 | 40.07867 | 116.61104 | 125 ft | 9 kts | 173° |
| 2026-05-09 08:45 | 40.07799 | 116.61114 | 126 ft | 11 kts | 172° |
| 2026-05-09 08:45 | 40.07713 | 116.61128 | 123 ft | 14 kts | 173° |
| 2026-05-09 08:46 | 40.07612 | 116.61144 | 126 ft | 16 kts | 173° |
| 2026-05-09 08:46 | 40.07543 | 116.61119 | 122 ft | 10 kts | 252° |
| 2026-05-09 08:46 | 40.07533 | 116.61023 | 126 ft | 8 kts | 263° |
| 2026-05-09 08:46 | 40.07532 | 116.61011 | 126 ft | 0 kts | 263° |
| 2026-05-09 08:49 | 40.07532 | 116.61010 | 126 ft | 1 kts | 263° |
| 2026-05-09 08:50 | 40.07530 | 116.60986 | 123 ft | 4 kts | 263° |
| 2026-05-09 08:50 | 40.07523 | 116.60924 | 126 ft | 10 kts | 254° |
| 2026-05-09 08:50 | 40.07453 | 116.60894 | 125 ft | 13 kts | 171° |
| 2026-05-09 08:50 | 40.07353 | 116.60911 | 123 ft | 16 kts | 173° |
| 2026-05-09 08:51 | 40.07238 | 116.60929 | 124 ft | 18 kts | 173° |
| 2026-05-09 08:51 | 40.07209 | 116.60933 | 123 ft | 2 kts | 173° |
| 2026-05-09 08:51 | 40.07184 | 116.60937 | 125 ft | 5 kts | 173° |
| 2026-05-09 08:51 | 40.07171 | 116.60939 | 124 ft | 2 kts | 173° |
| 2026-05-09 08:52 | 40.07152 | 116.60942 | 126 ft | 4 kts | 173° |
| 2026-05-09 08:52 | 40.07146 | 116.60943 | 124 ft | 0 kts | 173° |
| 2026-05-09 08:56 | 40.07145 | 116.60943 | 125 ft | 1 kts | 173° |
| 2026-05-09 08:56 | 40.07130 | 116.60945 | 124 ft | 4 kts | 172° |
| 2026-05-09 08:56 | 40.07094 | 116.60952 | 123 ft | 7 kts | 173° |
| 2026-05-09 08:56 | 40.07040 | 116.60967 | 126 ft | 8 kts | 141° |
| 2026-05-09 08:57 | 40.07034 | 116.61040 | 126 ft | 7 kts | 82° |
| 2026-05-09 08:57 | 40.07037 | 116.61075 | 126 ft | 1 kts | 83° |
| 2026-05-09 08:57 | 40.07038 | 116.61078 | 126 ft | 0 kts | 83° |